Saturday, August 24, 2019, 3:10 AM EDT
Back to Local

KMTP, Montauk Airport

Location: Montauk, NY, United States Lat: 41.067
Local Time: 3:10 AM EDT ( 7:10 GMT) Lon: -71.917
Time Zone: US/Eastern Elev: 6 ft

Show me the last for .
Show Decoded

2019-08-24 02:54 METAR KMTP 240654Z AUTO 02008G18KT 19/12 A3006 RMK AO1 SLP178 T01940122 =
2019-08-24 01:54 METAR KMTP 240554Z AUTO 03008KT 20/13 A3005 RMK AO1 SLP177 T02000133 10217 20200
                 51012 =
2019-08-24 00:54 METAR KMTP 240454Z AUTO 02007KT 20/14 A3005 RMK AO1 SLP176 T02000144 402280194 =
2019-08-23 23:54 METAR KMTP 240354Z AUTO 01007KT 21/16 A3004 RMK AO1 SLP173 T02060156 =
2019-08-23 22:54 METAR KMTP 240254Z AUTO 33005KT 21/17 A3002 RMK AO1 SLP165 T02110167 53010 =
2019-08-23 21:54 METAR KMTP 240154Z AUTO 32003KT 21/18 A3001 RMK AO1 SLP160 T02110178 =
2019-08-23 20:54 METAR KMTP 240054Z AUTO 00000KT 22/17 A3000 RMK AO1 SLP157 T02170167 =
2019-08-23 19:54 METAR KMTP 232354Z AUTO 31004KT 22/17 A2999 RMK AO1 SLP155 T02170172 10228 20206
                 53002 =
2019-08-23 18:54 METAR KMTP 232254Z AUTO 31004KT 22/17 A2999 RMK AO1 SLP154 T02170172 =
2019-08-23 17:54 METAR KMTP 232154Z AUTO 30004KT 22/18 A2998 RMK AO1 SLP150 T02220178 =
2019-08-23 16:54 METAR KMTP 232054Z AUTO 00000KT 22/18 A2998 RMK AO1 SLP153 T02220178 58001 =
2019-08-23 15:54 METAR KMTP 231954Z AUTO 29006KT 21/16 A2999 RMK AO1 SLP156 T02110161 =
2019-08-23 14:54 METAR KMTP 231854Z AUTO 31005KT 22/16 A2998 RMK AO1 SLP151 T02170156 =
2019-08-23 13:54 METAR KMTP 231754Z AUTO 32005KT 21/15 A2999 RMK AO1 SLP154 T02060150 10206 20194
                 55008 =
2019-08-23 12:54 METAR KMTP 231654Z AUTO 35004KT 20/16 A2998 RMK AO1 SLP152 T02000156 =
2019-08-23 11:54 METAR KMTP 231554Z AUTO 00000KT 20/14 A2999 RMK AO1 SLP155 T02000144 =
2019-08-23 10:54 METAR KMTP 231454Z AUTO 34003KT 19/15 A3001 RMK AO1 SLP163 T01940150 50007 =
2019-08-23 09:54 METAR KMTP 231354Z AUTO 35005KT 20/15 A3001 RMK AO1 SLP163 T02000150 =
2019-08-23 08:54 METAR KMTP 231254Z AUTO 35006KT 20/15 A3000 RMK AO1 SLP158 T02000150 =
2019-08-23 07:54 METAR KMTP 231154Z AUTO 34003KT 20/17 A2999 RMK AO1 SLP156 P0001 60001 70017
                 T02000172 10228 20200 53023 =
2019-08-23 06:54 METAR KMTP 231054Z AUTO 35005KT 21/17 A2996 RMK AO1 SLP146 T02110167 =
2019-08-23 05:54 METAR KMTP 230954Z AUTO 01005KT 21/17 A2994 RMK AO1 SLP138 T02110172 =
2019-08-23 04:54 METAR KMTP 230854Z AUTO 34008KT 22/18 A2992 RMK AO1 SLP133 T02170183 53008 =
2019-08-23 03:54 METAR KMTP 230754Z AUTO 00000KT 22/22 A2990 RMK AO1 SLP124 T02220217 =

Support USWX by starting your Amazon purchase here.